Contender — WSC4842 — position and weather

sailwx.info

Track history (hours):
 
Tides and Currents Weather Stations Pressure Air Temp Water Temp Dewpoint Dewpoint Depression Visibility Wind Speed Wind Dir Waves Ship Positions

Contender

Owner: MICHIGAN FISHING CORP, FAIRHAVEN, MA. More information available from US FCC via Universal Licensing System and Coast Guard Vessel Documentation Center.

Last reported at 2015-Jun-30 22:33 UTC. Time now 2015-Aug-30 01:39 UTC.
Position N 41°24' W 071°04'.
Warning: this ship's position is months out of date.

Length 34 m.

Type: Fishing. MMSI: 367068890.

Date/timePositionNaut miles runAvg speedWind from/ knotsBaromVisibWave heightAir tempDewpointWater temp
2015-Jun-30 22:33N 41°24' W 071°04'10 9.8
2015-Jun-30 21:33N 41°16' W 071°12'10 9.5
2015-Jun-30 20:33N 41°09' W 071°19'9 9.5
2015-Jun-30 19:33N 41°01' W 071°27'10 9.7
2015-Jun-30 18:33N 40°54' W 071°35'9 9.5
2015-Jun-30 17:33N 40°46' W 071°42'10 9.6
2015-Jun-30 16:33N 40°38' W 071°50'12 9.9
2015-Jun-30 15:21N 40°29' W 071°59'8 9.7
2015-Jun-30 14:33N 40°23' W 072°05'10 9.6
2015-Jun-30 13:33N 40°15' W 072°13'9 9.4
2015-Jun-30 12:33N 40°07' W 072°20'12 9.5
2015-Jun-30 11:19N 39°58' W 072°29'7 9.4
2015-Jun-30 10:33N 39°52' W 072°35'9 9.4
2015-Jun-30 09:33N 39°45' W 072°43'10 9.5
2015-Jun-30 08:33N 39°37' W 072°50'10 9.0
2015-Jun-30 07:29N 39°30' W 072°58'  
2015-Jun-27 20:32N 38°45' W 073°38'3 0.6
2015-Jun-27 16:19N 38°47' W 073°36'1 1.6
2015-Jun-27 15:32N 38°46' W 073°35'72 2.3
2015-Jun-26 07:33N 39°45' W 072°42'12 9.5
2015-Jun-26 06:18N 39°54' W 072°33'7 9.5
2015-Jun-26 05:33N 40°00' W 072°27'9 9.4
2015-Jun-26 04:33N 40°08' W 072°20'10 9.7
2015-Jun-26 03:33N 40°16' W 072°13'10 9.7
2015-Jun-26 02:33N 40°23' W 072°05'10 9.5
2015-Jun-26 01:33N 40°31' W 071°57'10 9.6
2015-Jun-26 00:33N 40°38' W 071°49'9 9.3
2015-Jun-25 23:33N 40°45' W 071°42'9 9.0
2015-Jun-25 22:33N 40°53' W 071°34'9 9.2
2015-Jun-25 21:33N 40°60' W 071°27'9 8.8
2015-Jun-25 20:34N 41°07' W 071°20'9 8.8
2015-Jun-25 19:33N 41°14' W 071°13'10 8.9
2015-Jun-25 18:29N 41°22' W 071°05'  
Track history (hours):
 
Tides and Currents Weather Stations Pressure Air Temp Water Temp Dewpoint Dewpoint Depression Visibility Wind Speed Wind Dir Waves Ship Positions

Contender

Owner: MICHIGAN FISHING CORP, FAIRHAVEN, MA. More information available from US FCC via Universal Licensing System and Coast Guard Vessel Documentation Center.

Last reported at 2015-Jun-30 22:33 UTC. Time now 2015-Aug-30 01:39 UTC.
Position N 41°24' W 071°04'.
Warning: this ship's position is months out of date.

Length 34 m.

Type: Fishing. MMSI: 367068890.

Date/timePositionNaut miles runAvg speedWind from/ knotsBaromVisibWave heightAir tempDewpointWater temp
2015-Jun-30 22:33N 41°24' W 071°04'10 9.8
2015-Jun-30 21:33N 41°16' W 071°12'10 9.5
2015-Jun-30 20:33N 41°09' W 071°19'9 9.5
2015-Jun-30 19:33N 41°01' W 071°27'10 9.7
2015-Jun-30 18:33N 40°54' W 071°35'9 9.5
2015-Jun-30 17:33N 40°46' W 071°42'10 9.6
2015-Jun-30 16:33N 40°38' W 071°50'12 9.9
2015-Jun-30 15:21N 40°29' W 071°59'8 9.7
2015-Jun-30 14:33N 40°23' W 072°05'10 9.6
2015-Jun-30 13:33N 40°15' W 072°13'9 9.4
2015-Jun-30 12:33N 40°07' W 072°20'12 9.5
2015-Jun-30 11:19N 39°58' W 072°29'7 9.4
2015-Jun-30 10:33N 39°52' W 072°35'9 9.4
2015-Jun-30 09:33N 39°45' W 072°43'10 9.5
2015-Jun-30 08:33N 39°37' W 072°50'10 9.0
2015-Jun-30 07:29N 39°30' W 072°58'  
2015-Jun-27 20:32N 38°45' W 073°38'3 0.6
2015-Jun-27 16:19N 38°47' W 073°36'1 1.6
2015-Jun-27 15:32N 38°46' W 073°35'72 2.3
2015-Jun-26 07:33N 39°45' W 072°42'12 9.5
2015-Jun-26 06:18N 39°54' W 072°33'7 9.5
2015-Jun-26 05:33N 40°00' W 072°27'9 9.4
2015-Jun-26 04:33N 40°08' W 072°20'10 9.7
2015-Jun-26 03:33N 40°16' W 072°13'10 9.7
2015-Jun-26 02:33N 40°23' W 072°05'10 9.5
2015-Jun-26 01:33N 40°31' W 071°57'10 9.6
2015-Jun-26 00:33N 40°38' W 071°49'9 9.3
2015-Jun-25 23:33N 40°45' W 071°42'9 9.0
2015-Jun-25 22:33N 40°53' W 071°34'9 9.2
2015-Jun-25 21:33N 40°60' W 071°27'9 8.8
2015-Jun-25 20:34N 41°07' W 071°20'9 8.8
2015-Jun-25 19:33N 41°14' W 071°13'10 8.9
2015-Jun-25 18:29N 41°22' W 071°05'  

Dump ship's entire track history